This is the latest recevied weather packets stored in our database for station/object OK2JF-6. If no packets are shown the sender has not sent any weather packets the latest 10 day(s).
| Time | Temp. | Humidity | Pressure | Rain* | Wind** | Luminosity | Snow |
|---|---|---|---|---|---|---|---|
| 1778050563 | 19.44° C | 60% | 1079.8 hPa | 0 mm | - | 287 W/m² | - |
| 1778050503 | 19.44° C | 60% | 1079.9 hPa | 0 mm | - | 279 W/m² | - |
| 1778049243 | 16.67° C | 67% | 1079.5 hPa | 0 mm | - | 102 W/m² | - |
| 1778049183 | 16.67° C | 68% | 1079.8 hPa | 0 mm | - | 187 W/m² | - |
| 1778048943 | 17.22° C | 67% | 1079.9 hPa | 0 mm | - | 171 W/m² | - |
| 1778048583 | 17.22° C | 68% | 1079.7 hPa | 0 mm | - | 224 W/m² | - |
| 1778048343 | 16.67° C | 72% | 1079.7 hPa | 0 mm | - | 211 W/m² | - |
| 1778047983 | 15° C | 75% | 1079.5 hPa | 0 mm | - | 223 W/m² | - |
| 1778047923 | 15° C | 75% | 1079.5 hPa | 0 mm | - | 221 W/m² | - |
| 1778047877 | 15° C | 75% | 1079.5 hPa | 0 mm | - | 212 W/m² | - |
| 1778047263 | 14.44° C | 78% | 1079.6 hPa | 0 mm | - | 139 W/m² | - |
| 1778047203 | 14.44° C | 78% | 1079.8 hPa | 0 mm | - | 111 W/m² | - |
| 1778046723 | 14.44° C | 78% | 1079.4 hPa | 0 mm | - | 156 W/m² | - |
| 1778046364 | 13.89° C | 79% | 1079.7 hPa | 0 mm | - | 149 W/m² | - |
| 1778045763 | 13.33° C | 81% | 1079.4 hPa | 0 mm | - | 134 W/m² | - |
| 1778045523 | 13.33° C | 81% | 1079.5 hPa | 0 mm | - | 126 W/m² | - |
| 1778045403 | 13.33° C | 82% | 1079.5 hPa | 0 mm | - | 121 W/m² | - |
| 1778045358 | 13.33° C | 82% | 1079.5 hPa | 0 mm | - | 120 W/m² | - |
| 1778045163 | 13.33° C | 83% | 1079.6 hPa | 0 mm | - | 113 W/m² | - |
| 1778044503 | 13.33° C | 83% | 1079.4 hPa | 0 mm | - | 94 W/m² | - |
| 1778044263 | 13.33° C | 83% | 1079.6 hPa | 0 mm | - | 88 W/m² | - |
| 1778043423 | 13.89° C | 85% | 1079 hPa | 0 mm | - | 71 W/m² | - |
| 1778043363 | 13.89° C | 86% | 1078.8 hPa | 0 mm | - | 69 W/m² | - |
| 1778043003 | 14.44° C | 89% | 1078.9 hPa | 0 mm | - | 62 W/m² | - |
| 1778042823 | 13.89° C | 89% | 1079.4 hPa | 0 mm | - | 58 W/m² | - |
* Rain latest hour (hover to see other rain measurements)
** Current wind speed in m/s (hover to see current wind gust speed)